createdAt,value
2018-01-04T00:00:45.523Z,7.1
2018-01-04T00:01:46.307Z,7.1
2018-01-04T00:02:48.187Z,7.1
2018-01-04T00:03:49.114Z,7.1
2018-01-04T00:04:49.880Z,7.0
2018-01-04T00:05:50.604Z,7.0
2018-01-04T00:06:51.338Z,7.0
2018-01-04T00:07:52.088Z,6.9
2018-01-04T00:08:52.790Z,6.9
2018-01-04T00:09:53.642Z,6.9
2018-01-04T00:10:54.440Z,6.8
2018-01-04T00:11:55.164Z,6.8
2018-01-04T00:12:55.933Z,6.8
2018-01-04T00:13:56.594Z,6.8
2018-01-04T00:14:57.464Z,6.8
2018-01-04T00:15:59.375Z,6.8
2018-01-04T00:17:00.452Z,6.8
2018-01-04T00:18:01.140Z,6.8
2018-01-04T00:19:01.870Z,6.7
2018-01-04T00:20:02.592Z,6.7
2018-01-04T00:21:03.373Z,6.8
2018-01-04T00:22:04.102Z,6.8
2018-01-04T00:23:04.825Z,6.8
2018-01-04T00:24:05.625Z,6.8
2018-01-04T00:25:06.404Z,6.8
2018-01-04T00:26:07.130Z,6.9
2018-01-04T00:27:07.851Z,6.9
2018-01-04T00:28:08.574Z,6.9
2018-01-04T00:29:09.330Z,6.8
2018-01-04T00:30:10.201Z,6.8
2018-01-04T00:31:10.966Z,6.8
2018-01-04T00:32:11.762Z,6.9
2018-01-04T00:33:12.491Z,6.9
2018-01-04T00:34:13.258Z,6.9
2018-01-04T00:35:14.032Z,6.9
2018-01-04T00:36:14.748Z,6.9
2018-01-04T00:37:15.481Z,6.9
2018-01-04T00:38:16.273Z,6.9
2018-01-04T00:39:17.040Z,6.9
2018-01-04T00:40:17.789Z,6.9
2018-01-04T00:41:18.552Z,7.0
2018-01-04T00:42:19.350Z,6.9
2018-01-04T00:43:20.119Z,6.9
2018-01-04T00:44:20.849Z,7.0
2018-01-04T00:45:21.577Z,7.0
2018-01-04T00:46:22.360Z,7.0
2018-01-04T00:47:23.441Z,6.9
2018-01-04T00:48:24.109Z,7.0
2018-01-04T00:49:24.877Z,7.0
2018-01-04T00:50:25.600Z,7.0
2018-01-04T00:51:26.319Z,7.0
2018-01-04T00:52:27.084Z,7.0
2018-01-04T00:53:27.870Z,7.1
2018-01-04T00:54:28.640Z,7.1
2018-01-04T00:55:29.374Z,7.1
2018-01-04T00:56:30.201Z,7.1
2018-01-04T00:57:30.941Z,7.1
2018-01-04T00:58:31.678Z,7.1
2018-01-04T00:59:32.440Z,7.2
2018-01-04T01:00:33.159Z,7.1
2018-01-04T01:01:33.925Z,7.1
2018-01-04T01:02:34.657Z,7.2
2018-01-04T01:03:35.443Z,7.2
2018-01-04T01:04:36.161Z,7.3
2018-01-04T01:05:36.968Z,7.3
2018-01-04T01:06:37.671Z,7.2
2018-01-04T01:07:38.468Z,7.3
2018-01-04T01:08:39.383Z,7.2
2018-01-04T01:09:40.253Z,7.3
2018-01-04T01:10:41.065Z,7.2
2018-01-04T01:11:41.873Z,7.2
2018-01-04T01:12:43.021Z,7.2
2018-01-04T01:13:45.104Z,7.1
2018-01-04T01:14:45.998Z,7.1
2018-01-04T01:15:46.838Z,7.2
2018-01-04T01:16:47.710Z,7.3
2018-01-04T01:17:48.648Z,7.2
2018-01-04T01:18:49.525Z,7.2
2018-01-04T01:19:50.320Z,7.2
2018-01-04T01:20:51.132Z,7.2
2018-01-04T01:21:51.921Z,7.1
2018-01-04T01:22:52.729Z,7.1
2018-01-04T01:23:53.527Z,7.0
2018-01-04T01:24:54.251Z,7.2
2018-01-04T01:25:54.975Z,7.1
2018-01-04T01:26:55.712Z,7.1
2018-01-04T01:27:56.441Z,7.1
2018-01-04T01:28:57.279Z,7.1
2018-01-04T01:29:57.996Z,7.1
2018-01-04T01:30:58.732Z,7.0
2018-01-04T01:31:59.467Z,6.9
2018-01-04T01:33:00.191Z,7.0
2018-01-04T01:34:00.979Z,6.9
2018-01-04T01:35:01.702Z,7.0
2018-01-04T01:36:02.427Z,7.1
2018-01-04T01:37:03.161Z,7.1
2018-01-04T01:38:03.881Z,7.0
2018-01-04T01:39:04.680Z,7.0
2018-01-04T01:40:05.449Z,7.0
2018-01-04T01:41:06.228Z,7.0
2018-01-04T01:42:06.956Z,7.0
2018-01-04T01:43:07.751Z,7.0
2018-01-04T01:44:08.551Z,6.9
2018-01-04T01:45:09.377Z,7.1
2018-01-04T01:46:10.102Z,7.1
2018-01-04T01:47:10.851Z,6.9
2018-01-04T01:48:11.630Z,6.9
2018-01-04T01:49:12.360Z,6.9
2018-01-04T01:50:13.197Z,6.9
2018-01-04T01:51:14.001Z,6.9
2018-01-04T01:52:14.770Z,6.8
2018-01-04T01:53:15.506Z,6.8
2018-01-04T01:54:16.280Z,6.8
2018-01-04T01:55:17.044Z,6.8
2018-01-04T01:56:17.769Z,6.8
2018-01-04T01:57:18.489Z,6.8
2018-01-04T01:58:19.220Z,6.7
2018-01-04T01:59:19.940Z,6.8
2018-01-04T02:00:20.724Z,6.7
2018-01-04T02:01:21.503Z,6.9
2018-01-04T02:02:22.229Z,6.8
2018-01-04T02:03:22.951Z,6.7
2018-01-04T02:04:23.685Z,6.8
2018-01-04T02:05:24.500Z,6.7
2018-01-04T02:06:25.221Z,6.7
2018-01-04T02:07:26.011Z,6.7
2018-01-04T02:08:26.742Z,6.6
2018-01-04T02:09:27.510Z,6.6
2018-01-04T02:10:28.217Z,6.6
2018-01-04T02:11:28.941Z,6.7
2018-01-04T02:12:29.672Z,6.7
2018-01-04T02:13:30.451Z,6.7
2018-01-04T02:14:31.273Z,6.7
2018-01-04T02:15:32.021Z,6.7
2018-01-04T02:16:32.750Z,6.8
2018-01-04T02:17:33.476Z,6.7
2018-01-04T02:18:34.250Z,6.7
2018-01-04T02:19:34.980Z,6.7
2018-01-04T02:20:35.720Z,6.7
2018-01-04T02:21:36.453Z,6.8
2018-01-04T02:22:37.180Z,6.8
2018-01-04T02:23:37.912Z,6.8
2018-01-04T02:24:38.725Z,6.8
2018-01-04T02:25:39.431Z,6.8
2018-01-04T02:26:40.148Z,6.8
2018-01-04T02:27:40.881Z,6.8
2018-01-04T02:28:41.690Z,6.8
2018-01-04T02:29:42.410Z,6.7
2018-01-04T02:30:43.138Z,6.9
2018-01-04T02:31:43.861Z,6.8
2018-01-04T02:32:44.578Z,6.9
2018-01-04T02:33:45.301Z,6.9
2018-01-04T02:34:46.026Z,6.9
2018-01-04T02:35:46.838Z,6.9
2018-01-04T02:36:47.510Z,6.9
2018-01-04T02:37:48.244Z,6.9
2018-01-04T02:38:49.006Z,7.0
2018-01-04T02:39:49.784Z,6.9
2018-01-04T02:40:50.591Z,6.9
2018-01-04T02:41:51.323Z,6.8
2018-01-04T02:42:52.046Z,6.8
2018-01-04T02:43:52.814Z,6.8
2018-01-04T02:44:53.670Z,6.9
2018-01-04T02:45:54.404Z,6.9
2018-01-04T02:46:55.199Z,6.9
2018-01-04T02:47:55.937Z,7.0
2018-01-04T02:48:56.741Z,7.0
2018-01-04T02:49:57.521Z,6.9
2018-01-04T02:50:58.259Z,6.8
2018-01-04T02:51:59.052Z,6.8
2018-01-04T02:52:59.781Z,6.8
2018-01-04T02:54:00.579Z,6.8
2018-01-04T02:55:01.311Z,6.8
2018-01-04T02:56:02.038Z,6.8
2018-01-04T02:57:02.814Z,6.8
2018-01-04T02:58:03.599Z,6.9
2018-01-04T02:59:04.330Z,6.9
2018-01-04T03:00:05.041Z,6.9
2018-01-04T03:01:05.768Z,6.9
2018-01-04T03:02:06.480Z,6.9
2018-01-04T03:03:07.211Z,6.9
2018-01-04T03:04:07.933Z,6.8
2018-01-04T03:05:08.746Z,6.8
2018-01-04T03:06:09.564Z,6.8
2018-01-04T03:08:24.581Z,6.8
2018-01-04T03:09:25.332Z,6.9
2018-01-04T03:10:26.120Z,6.9
2018-01-04T03:11:26.894Z,6.9
2018-01-04T03:12:27.717Z,6.9
2018-01-04T03:13:28.553Z,6.9
2018-01-04T03:14:29.303Z,6.9
2018-01-04T03:15:30.086Z,6.9
2018-01-04T03:16:30.802Z,6.9
2018-01-04T03:17:31.535Z,6.9
2018-01-04T03:18:32.250Z,6.9
2018-01-04T03:19:32.975Z,6.9
2018-01-04T03:20:33.692Z,6.9
2018-01-04T03:21:34.494Z,6.9
2018-01-04T03:22:35.226Z,7.0
2018-01-04T03:23:35.948Z,7.0
2018-01-04T03:24:36.743Z,7.0
2018-01-04T03:25:37.597Z,7.1
2018-01-04T03:26:38.272Z,7.1
2018-01-04T03:27:39.003Z,7.0
2018-01-04T03:28:39.773Z,7.1
2018-01-04T03:29:40.483Z,6.9
2018-01-04T03:30:41.204Z,7.0
2018-01-04T03:31:42.000Z,7.1
2018-01-04T03:32:42.826Z,7.1
2018-01-04T03:33:43.588Z,7.1
2018-01-04T03:34:44.313Z,7.1
2018-01-04T03:35:45.038Z,7.1
2018-01-04T03:36:45.753Z,7.1
2018-01-04T03:37:46.470Z,7.1
2018-01-04T03:38:47.254Z,7.2
2018-01-04T03:39:48.060Z,7.2
2018-01-04T03:40:48.848Z,7.2
2018-01-04T03:41:49.593Z,7.1
2018-01-04T03:42:50.355Z,7.1
2018-01-04T03:43:51.159Z,7.0
2018-01-04T03:44:51.921Z,7.1
2018-01-04T03:45:53.834Z,7.0
2018-01-04T03:46:54.758Z,7.1
2018-01-04T03:47:55.481Z,7.3
2018-01-04T03:48:56.215Z,7.2
2018-01-04T03:49:57.033Z,7.2
2018-01-04T03:50:57.755Z,7.3
2018-01-04T03:51:58.477Z,7.3
2018-01-04T03:52:59.302Z,7.2
2018-01-04T03:54:00.037Z,7.3
2018-01-04T03:55:00.862Z,7.2
2018-01-04T03:56:01.589Z,7.2
2018-01-04T03:57:02.316Z,7.3
2018-01-04T03:58:03.032Z,7.2
2018-01-04T03:59:03.757Z,7.2
2018-01-04T04:00:04.479Z,7.2
2018-01-04T04:01:05.279Z,7.2
2018-01-04T04:02:06.083Z,7.2
2018-01-04T04:03:06.876Z,7.2
2018-01-04T04:04:07.658Z,7.3
2018-01-04T04:05:08.395Z,7.2
2018-01-04T04:06:09.122Z,7.2
2018-01-04T04:07:09.840Z,7.2
2018-01-04T04:08:10.652Z,7.2
2018-01-04T04:09:11.380Z,7.2
2018-01-04T04:10:12.098Z,7.2
2018-01-04T04:11:12.940Z,7.2
2018-01-04T04:12:13.697Z,7.2
2018-01-04T04:13:14.420Z,7.2
2018-01-04T04:14:15.195Z,7.2
2018-01-04T04:15:15.955Z,7.2
2018-01-04T04:16:16.688Z,7.1
2018-01-04T04:17:17.421Z,7.2
2018-01-04T04:18:18.200Z,7.0
2018-01-04T04:19:19.005Z,7.1
2018-01-04T04:20:19.761Z,6.9
2018-01-04T04:21:20.477Z,6.9
2018-01-04T04:22:21.268Z,6.9
2018-01-04T04:23:22.026Z,6.9
2018-01-04T04:24:22.745Z,6.9
2018-01-04T04:25:23.476Z,6.9
2018-01-04T04:26:24.272Z,6.8
2018-01-04T04:27:24.992Z,6.9
2018-01-04T04:28:25.757Z,6.8
2018-01-04T04:29:26.496Z,6.9
2018-01-04T04:30:27.224Z,6.8
2018-01-04T04:31:27.939Z,6.8
2018-01-04T04:32:28.667Z,6.8
2018-01-04T04:33:29.451Z,6.8
2018-01-04T04:34:30.188Z,6.9
2018-01-04T04:35:30.997Z,6.8
2018-01-04T04:36:31.717Z,6.9
2018-01-04T04:37:32.451Z,6.9
2018-01-04T04:38:33.233Z,6.8
2018-01-04T04:39:33.966Z,6.9
2018-01-04T04:40:34.817Z,6.9
2018-01-04T04:41:35.580Z,7.0
2018-01-04T04:42:36.322Z,6.9
2018-01-04T04:43:37.097Z,6.9
2018-01-04T04:44:37.867Z,7.0
2018-01-04T04:45:38.612Z,7.0
2018-01-04T04:46:39.294Z,7.0
2018-01-04T04:47:40.011Z,7.0
2018-01-04T04:48:40.777Z,7.0
2018-01-04T04:49:41.535Z,6.9
2018-01-04T04:50:42.251Z,7.1
2018-01-04T04:51:42.992Z,7.1
2018-01-04T04:52:43.714Z,7.2
2018-01-04T04:53:44.430Z,7.0
2018-01-04T04:54:45.167Z,7.2
2018-01-04T04:55:45.971Z,7.2
2018-01-04T04:56:46.687Z,7.1
2018-01-04T04:57:47.422Z,7.1
2018-01-04T04:58:48.204Z,7.2
2018-01-04T04:59:49.011Z,7.0
2018-01-04T05:00:49.719Z,7.1
2018-01-04T05:01:50.448Z,7.1
2018-01-04T05:02:51.161Z,7.1
2018-01-04T05:03:51.890Z,7.1
2018-01-04T05:04:52.611Z,7.1
2018-01-04T05:05:53.327Z,6.9
2018-01-04T05:06:54.101Z,7.1
2018-01-04T05:07:54.816Z,7.1
2018-01-04T05:08:55.544Z,7.0
2018-01-04T05:09:56.282Z,7.1
2018-01-04T05:10:56.996Z,7.1
2018-01-04T05:11:57.727Z,7.2
2018-01-04T05:12:58.463Z,7.1
2018-01-04T05:13:59.236Z,7.1
2018-01-04T05:15:00.023Z,7.0
2018-01-04T05:16:00.744Z,7.1
2018-01-04T05:17:01.457Z,7.1
2018-01-04T05:18:02.177Z,7.1
2018-01-04T05:19:02.923Z,7.2
2018-01-04T05:20:03.792Z,7.1
2018-01-04T05:21:04.514Z,7.0
2018-01-04T05:22:05.356Z,7.1
2018-01-04T05:23:06.149Z,7.1
2018-01-04T05:24:06.956Z,7.0
2018-01-04T05:25:07.731Z,7.1
2018-01-04T05:26:08.463Z,7.0
2018-01-04T05:27:09.193Z,7.1
2018-01-04T05:28:09.990Z,7.1
2018-01-04T05:29:10.713Z,7.1
2018-01-04T05:30:11.525Z,7.1
2018-01-04T05:31:12.312Z,7.2
2018-01-04T05:32:13.055Z,7.1
2018-01-04T05:33:13.781Z,7.1
2018-01-04T05:34:14.493Z,7.0
2018-01-04T05:35:15.385Z,7.0
2018-01-04T05:36:16.112Z,7.1
2018-01-04T05:37:16.850Z,7.1
2018-01-04T05:38:17.561Z,7.1
2018-01-04T05:39:18.346Z,7.1
2018-01-04T05:40:19.199Z,7.1
2018-01-04T05:41:19.917Z,7.1
2018-01-04T05:42:20.637Z,7.2
2018-01-04T05:43:21.371Z,7.1
2018-01-04T05:44:22.096Z,7.1
2018-01-04T05:45:22.856Z,7.1
2018-01-04T05:46:23.597Z,7.1
2018-01-04T05:47:24.364Z,7.1
2018-01-04T05:48:25.161Z,7.1
2018-01-04T05:49:25.927Z,7.1
2018-01-04T05:50:26.697Z,7.1
2018-01-04T05:51:27.427Z,7.1
2018-01-04T05:52:28.221Z,7.1
2018-01-04T05:53:28.938Z,7.1
2018-01-04T05:54:29.679Z,7.0
2018-01-04T05:55:30.405Z,7.2
2018-01-04T05:56:31.117Z,7.1
2018-01-04T05:57:31.853Z,7.1
2018-01-04T05:58:32.586Z,7.1
2018-01-04T05:59:33.304Z,7.1
2018-01-04T06:00:34.085Z,7.1
2018-01-04T06:01:34.810Z,7.1
2018-01-04T06:02:35.540Z,7.1
2018-01-04T06:03:36.322Z,7.1
2018-01-04T06:04:37.047Z,7.1
2018-01-04T06:05:37.769Z,7.0
2018-01-04T06:06:38.533Z,7.1
2018-01-04T06:07:39.279Z,7.1
2018-01-04T06:08:39.978Z,7.2
2018-01-04T06:09:40.723Z,7.1
2018-01-04T06:10:41.472Z,7.1
2018-01-04T06:11:42.261Z,7.1
2018-01-04T06:12:42.992Z,7.1
2018-01-04T06:13:43.711Z,7.1
2018-01-04T06:14:44.442Z,7.0
2018-01-04T06:15:45.208Z,7.0
2018-01-04T06:16:45.953Z,6.9
2018-01-04T06:17:46.741Z,6.9
2018-01-04T06:18:47.468Z,6.8
2018-01-04T06:19:48.229Z,6.8
2018-01-04T06:20:49.014Z,6.9
2018-01-04T06:21:49.721Z,6.8
2018-01-04T06:22:50.542Z,6.8
2018-01-04T06:23:51.312Z,6.7
2018-01-04T06:24:52.045Z,6.8
2018-01-04T06:25:52.781Z,6.8
2018-01-04T06:26:53.501Z,6.8
2018-01-04T06:27:54.231Z,6.8
2018-01-04T06:28:54.970Z,6.8
2018-01-04T06:29:55.764Z,6.8
2018-01-04T06:30:56.501Z,6.8
2018-01-04T06:31:57.226Z,6.8
2018-01-04T06:32:57.990Z,6.7
2018-01-04T06:33:58.778Z,6.8
2018-01-04T06:34:59.523Z,6.8
2018-01-04T06:36:00.283Z,6.8
2018-01-04T06:37:01.022Z,6.8
2018-01-04T06:38:01.743Z,6.8
2018-01-04T06:39:02.544Z,6.8
2018-01-04T06:40:03.355Z,6.8
2018-01-04T06:41:04.065Z,6.9
2018-01-04T06:42:04.801Z,6.8
2018-01-04T06:43:05.520Z,6.8
2018-01-04T06:44:06.247Z,6.7
2018-01-04T06:45:06.992Z,6.8
2018-01-04T06:46:07.756Z,6.8
2018-01-04T06:47:08.501Z,6.9
2018-01-04T06:48:09.287Z,6.8
2018-01-04T06:49:10.067Z,6.9
2018-01-04T06:50:10.796Z,6.9
2018-01-04T06:51:11.635Z,6.8
2018-01-04T06:52:12.423Z,6.8
2018-01-04T06:53:13.235Z,6.9
2018-01-04T06:54:14.025Z,6.8
2018-01-04T06:55:14.759Z,6.8
2018-01-04T06:56:15.552Z,6.8
2018-01-04T06:57:16.331Z,6.8
2018-01-04T06:58:17.132Z,6.8
2018-01-04T06:59:17.942Z,6.8
2018-01-04T07:00:18.671Z,6.8
2018-01-04T07:01:19.403Z,6.8
2018-01-04T07:02:20.117Z,6.8
2018-01-04T07:03:20.851Z,6.7
2018-01-04T07:04:21.591Z,6.9
2018-01-04T07:05:22.356Z,6.8
2018-01-04T07:06:23.099Z,6.8
2018-01-04T07:07:23.829Z,6.8
2018-01-04T07:08:24.612Z,6.8
2018-01-04T07:09:25.361Z,6.9
2018-01-04T07:10:26.167Z,6.8
2018-01-04T07:11:26.990Z,6.8
2018-01-04T07:12:27.760Z,6.8
2018-01-04T07:13:28.603Z,6.8
2018-01-04T07:14:29.345Z,6.7
2018-01-04T07:15:30.175Z,6.8
2018-01-04T07:16:30.981Z,6.8
2018-01-04T07:17:31.783Z,6.8
2018-01-04T07:18:32.602Z,6.8
2018-01-04T07:19:33.325Z,6.8
2018-01-04T07:20:34.116Z,6.8
2018-01-04T07:21:34.919Z,6.9
2018-01-04T07:22:35.630Z,6.9
2018-01-04T07:23:36.376Z,6.8
2018-01-04T07:24:37.166Z,6.9
2018-01-04T07:25:37.951Z,6.9
2018-01-04T07:26:38.667Z,6.9
2018-01-04T07:27:39.393Z,6.9
2018-01-04T07:28:40.128Z,6.8
2018-01-04T07:29:40.844Z,6.9
2018-01-04T07:30:41.656Z,6.9
2018-01-04T07:31:42.394Z,6.8
2018-01-04T07:32:43.156Z,6.8
2018-01-04T07:33:43.893Z,6.9
2018-01-04T07:34:44.687Z,6.9
2018-01-04T07:35:45.502Z,6.9
2018-01-04T07:36:46.245Z,6.8
2018-01-04T07:37:46.970Z,6.8
2018-01-04T07:38:47.696Z,6.8
2018-01-04T07:39:48.434Z,6.8
2018-01-04T07:40:49.224Z,6.8
2018-01-04T07:41:50.010Z,6.9
2018-01-04T07:42:50.738Z,6.9
2018-01-04T07:43:51.419Z,6.8
2018-01-04T07:44:52.137Z,6.9
2018-01-04T07:45:52.961Z,6.9
2018-01-04T07:46:53.694Z,6.8
2018-01-04T07:47:54.450Z,6.9
2018-01-04T07:48:55.172Z,6.7
2018-01-04T07:49:55.912Z,6.8
2018-01-04T07:50:56.642Z,6.9
2018-01-04T07:51:57.384Z,6.8
2018-01-04T07:52:58.117Z,6.9
2018-01-04T07:53:58.864Z,6.9
2018-01-04T07:54:59.670Z,6.8
2018-01-04T07:56:00.423Z,6.9
2018-01-04T07:57:01.240Z,6.9
2018-01-04T07:58:02.055Z,6.9
2018-01-04T07:59:02.820Z,6.9
2018-01-04T08:00:03.573Z,6.9
2018-01-04T08:01:04.384Z,7.0
2018-01-04T08:02:05.108Z,7.0
2018-01-04T08:03:05.817Z,7.0
2018-01-04T08:04:06.552Z,7.0
2018-01-04T08:05:07.285Z,6.9
2018-01-04T08:06:08.019Z,6.9
2018-01-04T08:07:08.802Z,7.0
2018-01-04T08:08:09.526Z,7.0
2018-01-04T08:09:10.308Z,7.0
2018-01-04T08:10:11.026Z,7.0
2018-01-04T08:11:11.767Z,7.0
2018-01-04T08:12:12.570Z,7.0
2018-01-04T08:13:13.345Z,7.0
2018-01-04T08:14:14.202Z,7.0
2018-01-04T08:15:14.937Z,7.0
2018-01-04T08:16:15.683Z,7.0
2018-01-04T08:17:16.433Z,7.0
2018-01-04T08:18:17.163Z,7.0
2018-01-04T08:19:17.926Z,7.0
2018-01-04T08:20:18.655Z,7.0
2018-01-04T08:21:19.449Z,7.0
2018-01-04T08:22:20.183Z,7.2
2018-01-04T08:23:20.913Z,7.0
2018-01-04T08:24:21.690Z,7.1
2018-01-04T08:25:22.479Z,7.0
2018-01-04T08:26:23.312Z,7.0
2018-01-04T08:27:24.068Z,7.1
2018-01-04T08:28:24.787Z,7.1
2018-01-04T08:29:25.547Z,7.0
2018-01-04T08:30:26.289Z,7.0
2018-01-04T08:31:27.112Z,7.1
2018-01-04T08:32:27.903Z,7.1
2018-01-04T08:33:28.701Z,7.2
2018-01-04T08:34:29.491Z,7.1
2018-01-04T08:35:30.268Z,7.2
2018-01-04T08:36:31.090Z,7.0
2018-01-04T08:37:31.896Z,7.1
2018-01-04T08:38:32.606Z,7.1
2018-01-04T08:39:33.401Z,7.1
2018-01-04T08:40:34.222Z,7.1
2018-01-04T08:41:34.962Z,7.2
2018-01-04T08:42:35.688Z,7.2
2018-01-04T08:43:36.416Z,7.2
2018-01-04T08:44:37.204Z,7.2
2018-01-04T08:45:37.920Z,7.2
2018-01-04T08:46:38.650Z,7.3
2018-01-04T08:47:39.382Z,7.3
2018-01-04T08:48:40.158Z,7.3
2018-01-04T08:49:40.960Z,7.3
2018-01-04T08:50:41.750Z,7.2
2018-01-04T08:51:42.485Z,7.3
2018-01-04T08:52:43.215Z,7.3
2018-01-04T08:53:44.044Z,7.3
2018-01-04T08:54:44.777Z,7.3
2018-01-04T08:55:45.598Z,7.4
2018-01-04T08:56:46.326Z,7.4
2018-01-04T08:57:47.071Z,7.3
2018-01-04T08:58:47.855Z,7.3
2018-01-04T08:59:48.635Z,7.4
2018-01-04T09:00:49.410Z,7.3
2018-01-04T09:01:50.162Z,7.4
2018-01-04T09:02:50.889Z,7.2
2018-01-04T09:03:51.673Z,7.4
2018-01-04T09:04:52.396Z,7.4
2018-01-04T09:05:53.117Z,7.4
2018-01-04T09:06:53.842Z,7.3
2018-01-04T09:07:54.557Z,7.3
2018-01-04T09:08:55.302Z,7.4
2018-01-04T09:09:56.116Z,7.4
2018-01-04T09:10:56.836Z,7.4
2018-01-04T09:11:57.563Z,7.3
2018-01-04T09:12:58.302Z,7.4
2018-01-04T09:13:59.107Z,7.4
2018-01-04T09:15:00.822Z,7.4
2018-01-04T09:16:01.970Z,7.4
2018-01-04T09:17:03.921Z,7.4
2018-01-04T09:18:04.956Z,7.4
2018-01-04T09:19:05.748Z,7.3
2018-01-04T09:20:06.480Z,7.5
2018-01-04T09:21:07.262Z,7.4
2018-01-04T09:22:07.999Z,7.4
2018-01-04T09:23:08.807Z,7.5
2018-01-04T09:24:09.543Z,7.4
2018-01-04T09:25:10.280Z,7.5
2018-01-04T09:26:11.140Z,7.5
2018-01-04T09:27:12.873Z,7.5
2018-01-04T09:28:13.826Z,7.5
2018-01-04T09:29:14.557Z,7.5
2018-01-04T09:30:15.336Z,7.5
2018-01-04T09:31:16.090Z,7.5
2018-01-04T09:32:16.837Z,7.5
2018-01-04T09:33:17.566Z,7.5
2018-01-04T09:34:18.304Z,7.4
2018-01-04T09:35:19.557Z,7.4
2018-01-04T09:36:21.027Z,7.4
2018-01-04T09:37:22.001Z,7.5
2018-01-04T09:38:23.239Z,7.5
2018-01-04T09:39:24.092Z,7.4
2018-01-04T09:40:24.937Z,7.5
2018-01-04T09:41:25.680Z,7.5
2018-01-04T09:42:26.406Z,7.6
2018-01-04T09:43:27.190Z,7.6
2018-01-04T09:44:28.836Z,7.7
2018-01-04T09:45:29.679Z,7.7
2018-01-04T09:46:30.447Z,7.6
2018-01-04T09:47:31.156Z,7.6
2018-01-04T09:48:31.882Z,7.6
2018-01-04T09:49:32.698Z,7.6
2018-01-04T09:50:33.438Z,7.6
2018-01-04T09:51:34.181Z,7.6
2018-01-04T09:52:34.915Z,7.6
2018-01-04T09:53:35.722Z,7.5
2018-01-04T09:54:36.577Z,7.6
2018-01-04T09:55:37.300Z,7.6
2018-01-04T09:56:38.326Z,7.6
2018-01-04T09:57:39.201Z,7.6
2018-01-04T09:58:39.984Z,7.6
2018-01-04T09:59:40.796Z,7.6
2018-01-04T10:00:41.606Z,7.6
2018-01-04T10:01:42.339Z,7.6
2018-01-04T10:02:43.072Z,7.6
2018-01-04T10:03:43.769Z,7.6
2018-01-04T10:04:44.581Z,7.6
2018-01-04T10:05:45.354Z,7.6
2018-01-04T10:06:46.083Z,7.6
2018-01-04T10:07:46.890Z,7.6
2018-01-04T10:08:47.624Z,7.6
2018-01-04T10:09:48.372Z,7.6
2018-01-04T10:10:49.150Z,7.6
2018-01-04T10:11:49.892Z,7.6
2018-01-04T10:12:50.711Z,7.6
2018-01-04T10:13:51.516Z,7.6
2018-01-04T10:14:52.239Z,7.6
2018-01-04T10:15:53.025Z,7.6
2018-01-04T10:16:53.749Z,7.6
2018-01-04T10:17:54.500Z,7.6
2018-01-04T10:18:55.231Z,7.6
2018-01-04T10:19:56.022Z,7.6
2018-01-04T10:20:56.803Z,7.6
2018-01-04T10:21:57.526Z,7.6
2018-01-04T10:22:58.308Z,7.6
2018-01-04T10:23:59.072Z,7.6
2018-01-04T10:24:59.812Z,7.7
2018-01-04T10:26:00.670Z,7.7
2018-01-04T10:27:01.396Z,7.7
2018-01-04T10:28:02.142Z,7.7
2018-01-04T10:29:02.945Z,7.6
2018-01-04T10:30:03.671Z,7.6
2018-01-04T10:31:04.450Z,7.7
2018-01-04T10:32:05.192Z,7.6
2018-01-04T10:33:05.936Z,7.7
2018-01-04T10:34:06.657Z,7.7
2018-01-04T10:35:07.407Z,7.6
2018-01-04T10:36:08.246Z,7.7
2018-01-04T10:37:08.987Z,7.6
2018-01-04T10:38:09.788Z,7.7
2018-01-04T10:39:10.519Z,7.7
2018-01-04T10:40:11.442Z,7.7
2018-01-04T10:41:12.236Z,7.7
2018-01-04T10:42:13.015Z,7.6
2018-01-04T10:43:13.750Z,7.7
2018-01-04T10:44:14.826Z,7.6
2018-01-04T10:45:15.716Z,7.7
2018-01-04T10:46:17.757Z,7.7
2018-01-04T10:47:18.757Z,7.7
2018-01-04T10:48:19.511Z,7.7
2018-01-04T10:49:20.310Z,7.7
2018-01-04T10:50:21.152Z,7.7
2018-01-04T10:51:21.922Z,7.7
2018-01-04T10:52:22.666Z,7.7
2018-01-04T10:53:23.452Z,7.7
2018-01-04T10:54:24.208Z,7.7
2018-01-04T10:55:24.966Z,7.8
2018-01-04T10:56:25.699Z,7.7
2018-01-04T10:57:26.477Z,7.7
2018-01-04T10:58:27.220Z,7.8
2018-01-04T10:59:27.953Z,7.8
2018-01-04T11:00:28.696Z,7.8
2018-01-04T11:01:29.476Z,7.8
2018-01-04T11:02:30.257Z,7.8
2018-01-04T11:03:30.982Z,7.8
2018-01-04T11:04:31.712Z,7.8
2018-01-04T11:05:32.444Z,7.7
2018-01-04T11:06:33.233Z,7.8
2018-01-04T11:07:34.081Z,7.9
2018-01-04T11:08:34.888Z,7.8
2018-01-04T11:09:35.620Z,8.0
2018-01-04T11:10:36.352Z,7.9
2018-01-04T11:11:37.078Z,7.9
2018-01-04T11:12:37.867Z,7.9
2018-01-04T11:13:38.607Z,7.9
2018-01-04T11:14:39.339Z,8.0
2018-01-04T11:15:40.158Z,8.0
2018-01-04T11:16:40.947Z,7.9
2018-01-04T11:17:41.728Z,7.8
2018-01-04T11:18:42.519Z,8.0
2018-01-04T11:19:43.252Z,8.0
2018-01-04T11:20:43.981Z,8.0
2018-01-04T11:21:44.777Z,8.0
2018-01-04T11:22:45.560Z,7.9
2018-01-04T11:23:46.347Z,8.0
2018-01-04T11:24:47.076Z,8.0
2018-01-04T11:25:47.803Z,8.0
2018-01-04T11:26:48.546Z,8.0
2018-01-04T11:27:49.326Z,8.0
2018-01-04T11:28:50.066Z,8.0
2018-01-04T11:29:50.888Z,8.0
2018-01-04T11:30:51.680Z,8.0
2018-01-04T11:31:52.412Z,8.1
2018-01-04T11:32:53.136Z,8.1
2018-01-04T11:33:53.880Z,8.0
2018-01-04T11:34:54.603Z,8.1
2018-01-04T11:35:55.825Z,8.1
2018-01-04T11:36:57.235Z,8.1
2018-01-04T11:37:58.033Z,8.2
2018-01-04T11:38:58.852Z,8.3
2018-01-04T11:39:59.586Z,8.3
2018-01-04T11:41:00.491Z,8.3
2018-01-04T11:42:01.196Z,8.3
2018-01-04T11:43:01.943Z,8.3
2018-01-04T11:44:02.747Z,8.3
2018-01-04T11:45:03.492Z,8.4
2018-01-04T11:46:04.300Z,8.4
2018-01-04T11:47:05.029Z,8.3
2018-01-04T11:48:05.828Z,8.3
2018-01-04T11:49:06.585Z,8.3
2018-01-04T11:50:07.411Z,8.3
2018-01-04T11:51:08.182Z,8.3
2018-01-04T11:52:08.986Z,8.3
2018-01-04T11:53:09.731Z,8.4
2018-01-04T11:54:11.488Z,8.3
2018-01-04T11:55:12.537Z,8.4
2018-01-04T11:56:13.429Z,8.3
2018-01-04T11:57:14.107Z,8.3
2018-01-04T11:58:14.881Z,8.3
2018-01-04T11:59:15.694Z,8.3
2018-01-04T12:00:16.798Z,8.3
2018-01-04T12:01:17.621Z,8.3
2018-01-04T12:02:18.965Z,8.4
2018-01-04T12:03:19.699Z,8.3
2018-01-04T12:04:20.575Z,8.3
2018-01-04T12:05:21.268Z,8.4
2018-01-04T12:06:22.075Z,8.4
2018-01-04T12:07:23.113Z,8.4
2018-01-04T12:08:23.934Z,8.3
2018-01-04T12:09:24.685Z,8.3
2018-01-04T12:10:25.431Z,8.3
2018-01-04T12:11:26.160Z,8.3
2018-01-04T12:12:26.891Z,8.2
2018-01-04T12:13:27.625Z,8.2
2018-01-04T12:14:28.412Z,8.3
2018-01-04T12:15:29.160Z,8.4
2018-01-04T12:16:29.940Z,8.2
2018-01-04T12:17:30.687Z,8.3
2018-01-04T12:18:31.490Z,8.3
2018-01-04T12:19:32.275Z,8.4
2018-01-04T12:20:33.023Z,8.4
2018-01-04T12:21:33.844Z,8.3
2018-01-04T12:22:34.567Z,8.3
2018-01-04T12:23:35.306Z,8.3
2018-01-04T12:24:36.047Z,8.3
2018-01-04T12:25:36.823Z,8.5
2018-01-04T12:26:37.548Z,8.4
2018-01-04T12:27:38.362Z,8.3
2018-01-04T12:28:39.151Z,8.4
2018-01-04T12:29:39.877Z,8.4
2018-01-04T12:30:40.701Z,8.4
2018-01-04T12:31:41.457Z,8.4
2018-01-04T12:32:42.210Z,8.5
2018-01-04T12:33:43.008Z,8.3
2018-01-04T12:34:43.753Z,8.4
2018-01-04T12:35:44.578Z,8.5
2018-01-04T12:36:45.328Z,8.5
2018-01-04T12:37:46.752Z,8.5
2018-01-04T12:38:47.425Z,8.4
2018-01-04T12:39:48.405Z,8.5
2018-01-04T12:40:50.289Z,8.5
2018-01-04T12:41:52.048Z,8.5
2018-01-04T12:42:52.771Z,8.6
2018-01-04T12:43:53.523Z,8.5
2018-01-04T12:44:54.248Z,8.6
2018-01-04T12:45:55.040Z,8.6
2018-01-04T12:46:55.780Z,8.7
2018-01-04T12:47:57.146Z,8.7
2018-01-04T12:48:58.903Z,8.7
2018-01-04T12:50:00.865Z,8.6
2018-01-04T12:51:02.081Z,8.7
2018-01-04T12:52:04.511Z,8.6
2018-01-04T12:53:06.112Z,8.6
2018-01-04T12:54:07.754Z,8.6
2018-01-04T12:55:08.444Z,8.6
2018-01-04T12:56:09.341Z,8.6
2018-01-04T12:57:10.559Z,8.6
2018-01-04T12:58:11.281Z,8.7
2018-01-04T12:59:11.986Z,8.6
2018-01-04T13:00:13.779Z,8.7
2018-01-04T13:01:15.697Z,8.8
2018-01-04T13:02:17.148Z,8.7
2018-01-04T13:03:17.877Z,8.7
2018-01-04T13:04:18.716Z,8.6
2018-01-04T13:05:19.462Z,8.7
2018-01-04T13:06:20.328Z,8.6
2018-01-04T13:07:21.146Z,8.7
2018-01-04T13:08:21.968Z,8.8
2018-01-04T13:09:22.716Z,8.7
2018-01-04T13:10:23.460Z,8.6
2018-01-04T13:11:24.212Z,8.7
2018-01-04T13:12:24.943Z,8.7
2018-01-04T13:13:25.856Z,8.7
2018-01-04T13:14:26.615Z,8.8
2018-01-04T13:15:27.349Z,8.8
2018-01-04T13:16:28.091Z,8.7
2018-01-04T13:17:28.866Z,8.6
2018-01-04T13:18:29.595Z,8.7
2018-01-04T13:19:30.347Z,8.8
2018-01-04T13:20:31.124Z,8.8
2018-01-04T13:21:31.915Z,8.7
2018-01-04T13:22:32.736Z,8.7
2018-01-04T13:23:33.540Z,8.6
2018-01-04T13:25:48.639Z,8.7
2018-01-04T13:26:49.419Z,8.7
2018-01-04T13:27:50.490Z,8.8
2018-01-04T13:28:51.172Z,8.8
2018-01-04T13:29:51.986Z,8.8
2018-01-04T13:30:52.760Z,8.8
2018-01-04T13:31:53.499Z,8.8
2018-01-04T13:32:54.241Z,8.8
2018-01-04T13:33:54.965Z,8.7
2018-01-04T13:34:55.698Z,8.8
2018-01-04T13:35:56.550Z,8.8
2018-01-04T13:36:57.296Z,8.9
2018-01-04T13:37:58.076Z,8.8
2018-01-04T13:38:58.827Z,8.8
2018-01-04T13:39:59.514Z,8.8
2018-01-04T13:41:00.249Z,8.9
2018-01-04T13:42:01.098Z,8.9
2018-01-04T13:43:01.907Z,8.9
2018-01-04T13:44:02.639Z,8.9
2018-01-04T13:45:03.385Z,8.9
2018-01-04T13:46:04.173Z,8.8
2018-01-04T13:47:04.924Z,8.9
2018-01-04T13:48:05.705Z,8.9
2018-01-04T13:49:06.442Z,8.8
2018-01-04T13:50:07.180Z,8.8
2018-01-04T13:51:07.926Z,8.8
2018-01-04T13:52:08.726Z,8.8
2018-01-04T13:53:09.469Z,8.8
2018-01-04T13:54:10.251Z,8.8
2018-01-04T13:55:10.986Z,8.8
2018-01-04T13:56:11.727Z,8.7
2018-01-04T13:57:12.530Z,8.6
2018-01-04T13:58:13.325Z,8.7
2018-01-04T13:59:14.047Z,8.6
2018-01-04T14:00:14.789Z,8.7